Terminal Aerodrome Forecast
Issued by NWS

Home | Current Version | Previous Version | Text Only | Print | Product List | Glossary On
Versions: 1 2 3 4 5 6 7 8 9 10 11 12 13 14 15
000
FTAK31 PANC 250540
TAFATK
TAF
PATK 250540Z 2506/2606 VRB03KT P6SM BKN060
      TEMPO 2508/2512 -SHRA SCT035 BKN050
     FM251200 VRB04KT P6SM -SHRA SCT025 BKN040
     FM260200 20006KT P6SM VCSH SCT025 BKN060=

USA.gov is the U.S. government's official web portal to all federal, state and local government web resources and services.